Time;durP1;ratioP1;P1;durP2;ratioP2;P2;SDS_P1;SDS_P2;PMS_P1;PMS_P2;Temp;Humidity;BMP_temperature;BMP_pressure;BME280_temperature;BME280_humidity;BME280_pressure;Samples;Min_cycle;Max_cycle;Signal;HPM_P1;HPM_P2
2022/06/13 00:01:59;;;;;;;16.17;7.63;;;20.10;99.90;;;;;;5025906;28;20188;-82
2022/06/13 00:04:25;;;;;;;14.93;7.93;;;20.10;99.90;;;;;;5032824;28;20663;-82
2022/06/13 00:06:51;;;;;;;14.63;7.93;;;20.10;99.90;;;;;;5036005;28;20184;-82
2022/06/13 00:09:18;;;;;;;14.40;7.43;;;20.20;99.90;;;;;;5030784;28;20192;-81
2022/06/13 00:11:44;;;;;;;12.70;6.80;;;20.20;99.90;;;;;;5049164;28;20183;-82
2022/06/13 00:14:11;;;;;;;14.30;7.40;;;20.20;99.90;;;;;;5048102;28;20631;-82
2022/06/13 00:16:37;;;;;;;15.27;7.60;;;20.20;99.90;;;;;;5044273;28;20191;-81
2022/06/13 00:19:04;;;;;;;13.10;7.50;;;20.10;99.90;;;;;;5027502;28;20402;-81
2022/06/13 00:21:35;;;;;;;16.87;7.70;;;20.10;99.90;;;;;;5065795;28;20188;-81
2022/06/13 00:24:07;;;;;;;18.83;7.80;;;20.10;99.90;;;;;;5047271;28;20274;-83
2022/06/13 00:26:36;;;;;;;14.73;7.97;;;20.10;99.90;;;;;;5022994;28;20917;-81
2022/06/13 00:29:04;;;;;;;13.43;7.23;;;20.10;99.90;;;;;;5047295;28;20172;-81
2022/06/13 00:31:30;;;;;;;15.20;7.50;;;20.10;99.90;;;;;;5030409;28;20212;-82
2022/06/13 00:33:57;;;;;;;13.77;7.87;;;20.10;99.90;;;;;;5049518;28;20218;-81
2022/06/13 00:36:23;;;;;;;12.43;7.47;;;20.10;99.90;;;;;;5053072;28;20552;-81
2022/06/13 00:38:52;;;;;;;15.70;7.30;;;20.20;99.90;;;;;;5028047;28;20195;-81
2022/06/13 00:41:28;;;;;;;13.77;6.77;;;20.20;99.90;;;;;;5032717;28;20214;-82
2022/06/13 00:43:56;;;;;;;13.73;7.33;;;20.20;99.90;;;;;;5063061;28;20245;-82
2022/06/13 00:46:32;;;;;;;11.80;7.17;;;20.20;99.90;;;;;;5026287;28;20668;-81
2022/06/13 00:49:41;;;;;;;16.20;6.63;;;20.20;99.90;;;;;;5044064;28;20282;-81
2022/06/13 00:52:30;;;;;;;11.90;7.30;;;20.20;99.90;;;;;;5028823;28;20225;-81
2022/06/13 00:54:57;;;;;;;16.87;7.70;;;20.20;99.90;;;;;;5050308;28;20184;-81
2022/06/13 00:57:28;;;;;;;15.93;7.37;;;20.20;99.90;;;;;;5043320;28;20206;-81
2022/06/13 01:00:02;;;;;;;13.40;6.80;;;20.20;99.90;;;;;;5029718;28;20184;-81
2022/06/13 01:02:29;;;;;;;14.23;7.30;;;20.20;99.90;;;;;;5049924;28;20246;-81
2022/06/13 01:04:58;;;;;;;10.43;6.30;;;20.20;99.90;;;;;;5043435;28;20594;-81
2022/06/13 01:07:28;;;;;;;11.60;6.67;;;20.10;99.90;;;;;;5023866;28;20652;-82
2022/06/13 01:12:42;;;;;;;15.00;6.50;;;20.20;99.90;;;;;;5067954;28;20233;-81
2022/06/13 01:15:36;;;;;;;17.57;7.60;;;20.20;99.90;;;;;;5055432;28;20184;-82
2022/06/13 01:18:30;;;;;;;14.37;7.07;;;20.20;99.90;;;;;;5020439;28;20218;-81
2022/06/13 01:21:13;;;;;;;12.03;6.27;;;20.20;99.90;;;;;;5035881;28;20196;-82
2022/06/13 01:24:11;;;;;;;16.70;6.77;;;20.10;99.90;;;;;;5045831;28;20232;-82
2022/06/13 01:27:02;;;;;;;13.53;7.17;;;20.10;99.90;;;;;;5055841;28;20194;-82
2022/06/13 01:29:45;;;;;;;14.67;7.43;;;20.10;99.90;;;;;;5022575;28;20185;-81
2022/06/13 01:32:51;;;;;;;14.10;7.23;;;20.20;99.90;;;;;;5029060;28;20727;-81
2022/06/13 01:35:46;;;;;;;11.50;7.23;;;20.20;99.90;;;;;;5036953;28;20183;-81
2022/06/13 01:38:24;;;;;;;12.93;6.80;;;20.20;99.90;;;;;;5037231;28;20188;-81
2022/06/13 01:40:56;;;;;;;14.67;7.27;;;20.20;99.90;;;;;;5034326;28;20196;-82
2022/06/13 01:43:59;;;;;;;14.97;7.17;;;20.20;99.90;;;;;;5048249;28;20302;-81
2022/06/13 01:46:35;;;;;;;12.40;6.30;;;20.20;99.90;;;;;;5024417;28;20191;-81
2022/06/13 01:49:39;;;;;;;12.27;6.07;;;20.20;99.90;;;;;;5050131;28;20187;-82
2022/06/13 01:52:54;;;;;;;10.00;6.10;;;20.20;99.90;;;;;;5030340;28;20194;-82
2022/06/13 01:55:59;;;;;;;12.60;6.10;;;20.20;99.90;;;;;;5052794;28;20198;-81
2022/06/13 01:58:53;;;;;;;19.33;6.67;;;20.10;99.90;;;;;;5039023;28;20280;-81
2022/06/13 02:01:58;;;;;;;11.17;6.13;;;20.10;99.90;;;;;;5055254;28;20652;-81
2022/06/13 02:04:59;;;;;;;11.00;5.77;;;20.00;99.90;;;;;;5050597;28;20480;-82
2022/06/13 02:07:33;;;;;;;10.87;5.50;;;20.10;99.90;;;;;;5042767;28;20215;-81
2022/06/13 02:10:10;;;;;;;14.93;6.50;;;20.00;99.90;;;;;;5024103;28;20187;-81
2022/06/13 02:12:38;;;;;;;15.57;5.80;;;20.00;99.90;;;;;;5031514;28;20271;-81
2022/06/13 02:15:27;;;;;;;14.93;6.10;;;20.10;99.90;;;;;;5031224;28;20207;-81
2022/06/13 02:18:32;;;;;;;14.13;6.27;;;20.00;99.90;;;;;;5039481;28;20195;-81
2022/06/13 02:21:08;;;;;;;14.63;5.97;;;20.00;99.90;;;;;;5041130;28;20331;-83
2022/06/13 02:23:43;;;;;;;12.13;6.00;;;20.00;99.90;;;;;;5037687;28;20265;-82
2022/06/13 02:26:31;;;;;;;11.57;5.90;;;20.00;99.90;;;;;;5029343;28;20180;-82
2022/06/13 02:29:14;;;;;;;14.93;5.57;;;20.00;99.90;;;;;;5032679;28;20644;-81
2022/06/13 02:31:53;;;;;;;18.57;6.37;;;20.00;99.90;;;;;;5035578;28;20640;-83
2022/06/13 02:34:40;;;;;;;14.53;6.23;;;20.00;99.90;;;;;;5031848;28;20214;-81
2022/06/13 02:37:26;;;;;;;15.70;5.67;;;20.00;99.90;;;;;;5041448;28;20191;-81
2022/06/13 02:40:32;;;;;;;16.97;5.60;;;20.00;99.90;;;;;;5040019;28;20183;-82
2022/06/13 02:43:15;;;;;;;13.57;6.10;;;20.00;99.90;;;;;;5038706;28;20207;-82
2022/06/13 02:46:11;;;;;;;12.13;5.30;;;20.00;99.90;;;;;;5032435;28;20248;-81
2022/06/13 02:48:51;;;;;;;10.87;5.47;;;20.00;99.90;;;;;;5019410;28;20184;-81
2022/06/13 02:51:37;;;;;;;15.17;6.23;;;19.90;99.90;;;;;;5046298;28;20183;-82
2022/06/13 02:54:18;;;;;;;12.70;6.07;;;20.00;99.90;;;;;;5023815;28;20190;-81
2022/06/13 02:57:23;;;;;;;12.97;5.67;;;20.00;99.90;;;;;;5036377;28;20202;-82
2022/06/13 03:00:11;;;;;;;11.13;5.63;;;20.00;99.90;;;;;;5026553;28;20253;-82
2022/06/13 03:03:19;;;;;;;12.93;5.67;;;19.90;99.90;;;;;;5025991;28;20219;-82
2022/06/13 03:06:31;;;;;;;11.13;5.70;;;19.90;99.90;;;;;;5029866;28;20192;-82
2022/06/13 03:09:08;;;;;;;11.33;5.77;;;19.90;99.90;;;;;;5049508;28;20207;-82
2022/06/13 03:12:16;;;;;;;13.80;5.50;;;19.90;99.90;;;;;;5031149;28;20191;-81
2022/06/13 03:15:29;;;;;;;16.77;6.03;;;19.90;99.90;;;;;;5039131;28;20199;-81
2022/06/13 03:18:19;;;;;;;13.07;5.23;;;19.90;99.90;;;;;;5032002;28;20175;-81
2022/06/13 03:21:12;;;;;;;12.70;5.77;;;19.90;99.90;;;;;;5037489;28;20282;-81
2022/06/13 03:23:45;;;;;;;11.53;5.53;;;19.90;99.90;;;;;;5032621;28;20242;-81
2022/06/13 03:26:19;;;;;;;14.43;4.97;;;19.90;99.90;;;;;;5033844;28;20194;-81
2022/06/13 03:29:09;;;;;;;16.10;5.60;;;19.90;99.90;;;;;;5030525;28;20179;-82
2022/06/13 03:31:50;;;;;;;13.33;5.60;;;19.90;99.90;;;;;;5020303;28;20202;-81
2022/06/13 03:34:35;;;;;;;13.67;5.70;;;19.90;99.90;;;;;;5026805;28;20294;-82
2022/06/13 03:37:16;;;;;;;13.23;5.50;;;19.90;99.90;;;;;;5039505;28;20192;-80
2022/06/13 03:40:07;;;;;;;14.47;5.60;;;20.00;99.90;;;;;;5028300;28;20804;-81
2022/06/13 03:43:03;;;;;;;14.70;6.03;;;20.00;99.90;;;;;;5037170;28;20216;-81
2022/06/13 03:45:44;;;;;;;18.87;6.20;;;20.00;99.90;;;;;;5055824;28;20273;-82
2022/06/13 03:48:26;;;;;;;13.63;5.97;;;20.00;99.90;;;;;;5045997;28;20214;-82
2022/06/13 03:51:19;;;;;;;15.40;5.67;;;20.10;99.90;;;;;;5038060;28;20180;-84
2022/06/13 03:53:52;;;;;;;11.03;5.20;;;20.10;99.90;;;;;;5049350;28;20264;-82
2022/06/13 03:56:30;;;;;;;13.63;5.97;;;20.10;99.90;;;;;;5044806;28;20180;-81
2022/06/13 03:59:11;;;;;;;17.73;5.87;;;20.10;99.90;;;;;;5026173;28;20183;-81
2022/06/13 04:01:46;;;;;;;11.90;5.50;;;20.10;99.90;;;;;;5041262;28;20239;-81
2022/06/13 04:04:21;;;;;;;12.67;5.37;;;20.10;99.90;;;;;;5026231;28;20199;-82
2022/06/13 04:06:48;;;;;;;9.80;5.33;;;20.20;99.90;;;;;;5033325;28;20187;-82
2022/06/13 04:09:29;;;;;;;13.23;5.90;;;20.20;99.90;;;;;;5028038;28;20188;-81
2022/06/13 04:12:34;;;;;;;14.20;5.57;;;20.20;99.90;;;;;;5034482;28;20259;-83
2022/06/13 04:15:38;;;;;;;15.67;6.00;;;20.20;99.90;;;;;;5028213;28;20231;-82
2022/06/13 04:19:01;;;;;;;15.00;5.80;;;20.20;99.90;;;;;;5029513;28;20187;-82
2022/06/13 04:22:01;;;;;;;11.07;5.27;;;20.30;99.90;;;;;;5028304;28;20245;-82
2022/06/13 04:25:04;;;;;;;9.47;5.27;;;20.30;99.90;;;;;;5013394;28;20238;-82
2022/06/13 04:27:44;;;;;;;14.27;5.53;;;20.30;99.90;;;;;;5036212;28;20250;-81
2022/06/13 04:30:19;;;;;;;13.33;5.90;;;20.40;99.90;;;;;;5038324;28;20206;-81
2022/06/13 04:32:57;;;;;;;11.03;5.47;;;20.50;99.90;;;;;;5026212;28;20295;-82
2022/06/13 04:35:25;;;;;;;11.77;5.00;;;20.50;99.90;;;;;;5046365;28;20192;-81
2022/06/13 04:37:52;;;;;;;9.60;5.17;;;20.50;99.90;;;;;;5033688;28;20195;-82
2022/06/13 04:40:28;;;;;;;16.53;6.07;;;20.50;99.90;;;;;;5050815;28;20249;-81
2022/06/13 04:42:58;;;;;;;14.23;5.87;;;20.50;99.90;;;;;;5035370;28;20209;-82
2022/06/13 04:45:53;;;;;;;12.13;5.10;;;20.50;99.90;;;;;;5020124;28;20191;-82
2022/06/13 04:48:21;;;;;;;12.50;4.93;;;20.60;99.90;;;;;;5028801;28;20195;-82
2022/06/13 04:50:57;;;;;;;9.43;5.20;;;20.60;99.90;;;;;;5027300;28;20612;-81
2022/06/13 04:54:12;;;;;;;11.73;5.60;;;20.60;99.90;;;;;;5035912;28;20226;-81
2022/06/13 04:56:38;;;;;;;11.20;5.20;;;20.70;99.90;;;;;;5023721;28;20200;-82
2022/06/13 04:59:08;;;;;;;12.97;5.33;;;20.70;99.90;;;;;;5045276;28;20257;-81
2022/06/13 05:01:56;;;;;;;11.90;4.90;;;20.80;99.90;;;;;;5046732;28;20325;-82
2022/06/13 05:04:30;;;;;;;12.30;5.60;;;20.80;99.90;;;;;;5026261;28;20429;-83
2022/06/13 05:07:08;;;;;;;11.40;4.80;;;20.90;99.90;;;;;;5041067;28;20198;-81
2022/06/13 05:10:12;;;;;;;10.23;4.93;;;21.00;99.90;;;;;;5042406;28;20188;-81
2022/06/13 05:12:44;;;;;;;13.07;4.70;;;21.10;99.90;;;;;;5045470;28;20671;-81
2022/06/13 05:15:32;;;;;;;10.50;4.70;;;21.10;99.90;;;;;;5045370;28;20192;-83
2022/06/13 05:18:10;;;;;;;11.13;4.93;;;21.00;99.90;;;;;;5026790;28;20200;-82
2022/06/13 05:21:02;;;;;;;13.27;4.90;;;21.00;99.90;;;;;;5024739;28;20541;-82
2022/06/13 05:23:52;;;;;;;9.50;4.63;;;21.00;99.90;;;;;;5020585;28;20220;-82
2022/06/13 05:26:20;;;;;;;9.83;5.00;;;21.00;99.90;;;;;;5030495;28;20187;-82
2022/06/13 05:28:47;;;;;;;12.50;4.43;;;21.20;99.90;;;;;;5045227;28;20651;-82
2022/06/13 05:31:19;;;;;;;12.53;4.30;;;21.20;99.90;;;;;;5024715;28;20190;-82
2022/06/13 05:33:50;;;;;;;14.60;5.23;;;21.20;99.90;;;;;;5030094;28;20211;-81
2022/06/13 05:36:22;;;;;;;8.60;3.97;;;21.30;99.90;;;;;;5023469;28;20206;-81
2022/06/13 05:39:00;;;;;;;10.13;4.30;;;21.30;99.90;;;;;;5030371;28;20188;-82
2022/06/13 05:41:26;;;;;;;12.30;4.43;;;21.40;99.90;;;;;;5044871;28;20555;-82
2022/06/13 05:43:54;;;;;;;9.43;3.90;;;21.50;99.90;;;;;;5052315;28;20598;-81
2022/06/13 05:46:34;;;;;;;10.57;4.20;;;21.50;99.90;;;;;;5040669;28;20195;-81
2022/06/13 05:49:01;;;;;;;10.03;3.60;;;21.60;99.90;;;;;;5032635;28;20179;-81
2022/06/13 05:51:28;;;;;;;8.43;3.90;;;21.60;99.90;;;;;;5046389;28;20266;-82
2022/06/13 05:53:57;;;;;;;12.30;4.17;;;21.60;99.90;;;;;;5037543;28;20276;-81
2022/06/13 05:56:25;;;;;;;8.77;4.10;;;21.60;99.90;;;;;;5041932;28;20187;-82
2022/06/13 05:58:53;;;;;;;9.03;3.90;;;21.50;99.90;;;;;;5030953;28;20191;-81
2022/06/13 06:01:20;;;;;;;6.90;3.20;;;21.50;99.90;;;;;;5038132;28;20177;-82
2022/06/13 06:03:47;;;;;;;8.43;3.80;;;21.50;99.90;;;;;;5030211;28;20266;-82
2022/06/13 06:06:26;;;;;;;11.13;3.67;;;21.50;99.90;;;;;;5027598;28;20183;-82
2022/06/13 06:08:56;;;;;;;10.90;4.50;;;21.60;99.90;;;;;;5038823;28;20196;-81
2022/06/13 06:11:26;;;;;;;6.43;3.37;;;21.70;99.90;;;;;;5045229;28;20218;-83
2022/06/13 06:13:57;;;;;;;8.57;3.87;;;21.70;99.90;;;;;;5025125;28;20266;-82
2022/06/13 06:16:29;;;;;;;8.80;3.53;;;21.80;99.90;;;;;;5048094;28;20187;-82
2022/06/13 06:18:56;;;;;;;8.60;3.10;;;21.70;99.90;;;;;;5037717;28;20256;-82
2022/06/13 06:21:23;;;;;;;6.07;3.33;;;21.60;99.90;;;;;;5043772;28;20544;-81
2022/06/13 06:23:50;;;;;;;6.67;3.50;;;21.60;99.90;;;;;;5022681;28;20208;-82
2022/06/13 06:26:25;;;;;;;8.13;3.27;;;21.60;99.90;;;;;;5033590;28;20204;-82
2022/06/13 06:28:58;;;;;;;9.40;3.97;;;21.60;99.90;;;;;;5031964;28;20191;-82
2022/06/13 06:31:32;;;;;;;8.73;3.50;;;21.60;99.90;;;;;;5014281;28;20195;-82
2022/06/13 06:33:59;;;;;;;10.63;4.30;;;21.60;99.90;;;;;;5045003;28;20215;-81
2022/06/13 06:36:47;;;;;;;11.77;3.90;;;21.70;99.90;;;;;;5021891;28;20294;-80
2022/06/13 06:39:20;;;;;;;8.23;3.43;;;21.90;99.90;;;;;;5020834;28;20220;-82
2022/06/13 06:41:47;;;;;;;7.80;3.40;;;21.90;99.90;;;;;;5026448;28;20198;-82
2022/06/13 06:44:16;;;;;;;8.03;3.53;;;21.90;99.90;;;;;;5042049;28;20218;-82
2022/06/13 06:46:43;;;;;;;9.55;3.55;;;21.90;99.90;;;;;;5025369;28;20200;-81
2022/06/13 06:49:10;;;;;;;6.40;2.85;;;21.90;99.90;;;;;;5048915;28;20223;-82
2022/06/13 06:51:36;;;;;;;7.30;2.95;;;21.90;99.90;;;;;;5045254;28;20198;-82
2022/06/13 07:02:23;;;;;;;8.87;3.30;;;22.20;99.90;;;;;;5041291;28;20727;-82
2022/06/13 07:04:52;;;;;;;8.65;3.55;;;22.20;99.90;;;;;;5043561;28;20188;-81
2022/06/13 07:07:21;;;;;;;8.25;3.42;;;22.20;99.90;;;;;;5026135;28;20234;-82
2022/06/13 07:09:49;;;;;;;7.03;3.53;;;22.10;99.90;;;;;;5023673;28;20665;-82
2022/06/13 07:12:16;;;;;;;6.68;3.40;;;22.20;99.90;;;;;;5035925;28;20198;-81
2022/06/13 07:14:44;;;;;;;9.00;3.17;;;22.30;99.90;;;;;;5025568;28;20629;-82
2022/06/13 07:17:12;;;;;;;9.98;3.30;;;22.40;99.90;;;;;;5027909;28;20196;-79
2022/06/13 07:19:39;;;;;;;6.72;3.20;;;22.70;99.90;;;;;;5048093;28;20859;-82
2022/06/13 07:22:13;;;;;;;4.88;2.83;;;22.90;99.90;;;;;;5053298;28;20287;-82
2022/06/13 07:24:40;;;;;;;8.10;3.33;;;23.10;99.90;;;;;;5037338;28;20205;-83
2022/06/13 07:27:08;;;;;;;8.38;3.47;;;23.30;99.90;;;;;;5031898;28;20199;-81
2022/06/13 07:29:35;;;;;;;5.25;2.90;;;23.50;99.90;;;;;;5024717;28;20216;-81
2022/06/13 07:32:16;;;;;;;9.68;3.72;;;23.50;99.90;;;;;;5024146;28;20203;-83
2022/06/13 07:34:47;;;;;;;8.88;3.35;;;23.60;99.90;;;;;;5026252;28;20211;-82
2022/06/13 07:38:16;;;;;;;9.77;3.60;;;23.70;99.90;;;;;;5045574;28;20199;-83
2022/06/13 07:40:07;;;;;;;9.20;3.40;;;23.70;99.90;;;;;;5039652;28;20179;-82
2022/06/13 07:42:43;;;;;;;6.57;3.35;;;23.80;99.90;;;;;;5028516;28;20216;-82
2022/06/13 07:45:19;;;;;;;5.80;3.10;;;23.80;99.90;;;;;;5039647;28;20188;-82
2022/06/13 07:47:49;;;;;;;7.82;2.92;;;23.80;99.90;;;;;;5035417;28;22695;-81
2022/06/13 07:50:21;;;;;;;7.93;3.22;;;23.80;99.90;;;;;;5041767;28;20719;-83
2022/06/13 07:52:53;;;;;;;10.07;3.72;;;23.80;99.90;;;;;;5042947;28;21024;-82
2022/06/13 07:55:22;;;;;;;8.23;3.53;;;24.00;99.90;;;;;;5041779;28;20262;-82
2022/06/13 07:57:49;;;;;;;9.32;3.30;;;24.10;99.90;;;;;;5026401;28;20363;-82
2022/06/13 08:00:31;;;;;;;10.98;3.17;;;24.30;99.90;;;;;;5029580;28;20195;-83
2022/06/13 08:03:01;;;;;;;6.47;3.00;;;24.40;99.90;;;;;;5025032;28;20219;-83
2022/06/13 08:05:29;;;;;;;7.63;2.90;;;24.80;99.90;;;;;;5028543;28;20214;-82
2022/06/13 08:07:56;;;;;;;11.30;3.15;;;25.00;99.90;;;;;;5058715;28;20184;-83
2022/06/13 08:10:24;;;;;;;6.95;3.03;;;25.10;99.90;;;;;;5036362;28;20726;-81
2022/06/13 08:12:51;;;;;;;8.45;3.03;;;25.00;99.90;;;;;;5028707;28;20195;-81
2022/06/13 08:15:24;;;;;;;8.68;3.55;;;24.80;99.90;;;;;;5040261;28;20603;-81
2022/06/13 08:17:52;;;;;;;7.50;2.83;;;24.70;99.90;;;;;;5022171;28;20255;-83
2022/06/13 08:20:19;;;;;;;7.38;2.80;;;24.70;99.90;;;;;;5039152;28;20191;-82
2022/06/13 08:22:49;;;;;;;8.30;3.40;;;24.50;99.90;;;;;;5043607;28;20220;-81
2022/06/13 08:25:28;;;;;;;7.75;3.40;;;24.40;99.90;;;;;;5022516;28;20195;-82
2022/06/13 08:28:00;;;;;;;7.75;3.30;;;24.30;99.90;;;;;;5037011;28;20175;-81
2022/06/13 08:31:01;;;;;;;8.70;3.72;;;24.20;99.90;;;;;;5040451;28;20188;-82
2022/06/13 08:33:28;;;;;;;8.40;3.45;;;24.10;99.90;;;;;;5036957;28;20215;-81
2022/06/13 08:35:56;;;;;;;13.30;3.90;;;24.10;99.90;;;;;;5044908;28;20222;-82
2022/06/13 08:38:24;;;;;;;9.05;3.22;;;24.10;99.90;;;;;;5044014;28;20187;-82
2022/06/13 08:41:11;;;;;;;12.15;4.05;;;24.10;99.90;;;;;;5020068;28;20191;-82
2022/06/13 08:44:08;;;;;;;8.18;3.95;;;24.10;99.90;;;;;;5035965;28;20220;-82
2022/06/13 08:47:15;;;;;;;10.80;4.03;;;24.10;99.90;;;;;;5040550;28;20187;-81
2022/06/13 08:50:03;;;;;;;12.55;4.43;;;24.00;99.90;;;;;;5036223;28;20240;-82
2022/06/13 08:52:50;;;;;;;11.80;3.90;;;24.40;99.90;;;;;;5027338;28;20182;-81
2022/06/13 08:55:31;;;;;;;7.88;3.95;;;24.40;99.90;;;;;;5022369;28;20583;-81
2022/06/13 08:58:12;;;;;;;8.27;4.43;;;24.20;99.90;;;;;;5017278;28;20179;-83
2022/06/13 09:00:49;;;;;;;10.38;5.25;;;24.20;99.90;;;;;;5031583;28;20187;-80
2022/06/13 09:03:53;;;;;;;9.27;5.40;;;24.30;99.90;;;;;;5022417;28;20249;-79
2022/06/13 09:06:35;;;;;;;8.15;4.57;;;24.20;99.90;;;;;;5043670;28;20198;-80
2022/06/13 09:09:18;;;;;;;11.93;4.43;;;24.00;99.90;;;;;;5046468;28;20183;-80
2022/06/13 09:12:17;;;;;;;10.43;5.20;;;23.90;99.90;;;;;;5025413;28;20885;-80
2022/06/13 09:15:31;;;;;;;11.77;5.60;;;23.90;99.90;;;;;;5048386;28;20206;-80
2022/06/13 09:18:45;;;;;;;13.60;5.45;;;23.90;99.90;;;;;;5046002;28;20176;-81
2022/06/13 09:21:48;;;;;;;12.40;5.63;;;23.80;99.90;;;;;;5036601;28;20385;-81
2022/06/13 09:24:28;;;;;;;10.20;5.78;;;23.80;99.90;;;;;;5011412;28;20276;-80
2022/06/13 09:27:22;;;;;;;14.95;5.20;;;24.00;99.90;;;;;;5045095;28;20195;-80
2022/06/13 09:30:22;;;;;;;13.85;5.03;;;24.10;99.90;;;;;;5038405;28;20199;-81
2022/06/13 09:33:06;;;;;;;12.55;4.80;;;24.20;99.90;;;;;;5053892;28;20215;-81
2022/06/13 09:35:47;;;;;;;12.25;5.05;;;24.60;99.90;;;;;;5032187;28;20195;-81
2022/06/13 09:38:44;;;;;;;7.60;3.95;;;24.60;99.90;;;;;;5040376;28;20218;-82
2022/06/13 09:41:40;;;;;;;13.38;4.75;;;24.40;99.90;;;;;;5041659;28;20699;-80
2022/06/13 09:44:42;;;;;;;13.43;6.03;;;24.30;99.90;;;;;;5011538;28;20271;-80
2022/06/13 09:47:51;;;;;;;14.60;6.68;;;24.10;99.90;;;;;;5024883;28;20627;-81
2022/06/13 09:50:55;;;;;;;12.07;6.30;;;24.10;99.90;;;;;;5018507;28;20214;-80
2022/06/13 09:53:46;;;;;;;12.40;5.80;;;24.20;99.90;;;;;;5041598;28;20200;-80
2022/06/13 09:56:28;;;;;;;12.52;6.40;;;24.10;99.90;;;;;;5051140;28;20267;-81
2022/06/13 09:59:35;;;;;;;13.00;6.35;;;24.20;99.90;;;;;;5038904;28;20267;-79
2022/06/13 10:03:03;;;;;;;13.98;6.35;;;24.60;99.90;;;;;;5019364;28;20334;-80
2022/06/13 10:05:51;;;;;;;22.60;7.38;;;25.10;99.90;;;;;;5040485;28;20187;-81
2022/06/13 10:08:58;;;;;;;13.32;6.40;;;25.40;99.90;;;;;;5029774;28;20536;-81
2022/06/13 10:12:06;;;;;;;12.73;6.30;;;25.20;99.90;;;;;;5029353;28;20202;-80
2022/06/13 10:14:59;;;;;;;11.88;6.18;;;24.70;99.90;;;;;;5039131;28;20199;-80
2022/06/13 10:18:22;;;;;;;13.50;6.85;;;24.60;99.90;;;;;;5031643;28;20652;-80
2022/06/13 10:20:58;;;;;;;17.00;7.10;;;24.40;99.90;;;;;;5042608;28;20648;-80
2022/06/13 10:23:58;;;;;;;15.43;7.65;;;24.40;99.90;;;;;;5030198;28;20210;-80
2022/06/13 10:27:08;;;;;;;15.00;8.00;;;24.30;99.90;;;;;;5042771;28;20233;-81
2022/06/13 10:29:49;;;;;;;13.13;7.35;;;24.50;99.90;;;;;;5037714;28;20516;-80
2022/06/13 10:32:43;;;;;;;15.13;7.60;;;24.90;99.90;;;;;;5045368;28;20183;-80
2022/06/13 10:35:54;;;;;;;12.35;8.00;;;24.90;99.90;;;;;;5025476;28;20196;-81
2022/06/13 10:38:55;;;;;;;16.30;8.00;;;24.90;99.90;;;;;;5035151;28;20608;-80
2022/06/13 10:41:31;;;;;;;14.20;8.23;;;24.80;99.90;;;;;;5038349;28;20204;-80
2022/06/13 10:44:03;;;;;;;16.52;8.60;;;24.80;99.90;;;;;;5026817;28;20794;-81
2022/06/13 10:46:33;;;;;;;13.73;8.35;;;24.70;99.90;;;;;;5039317;28;20196;-83
2022/06/13 10:49:33;;;;;;;13.60;8.90;;;24.80;99.90;;;;;;5042495;28;20274;-81
2022/06/13 10:52:19;;;;;;;13.60;8.23;;;25.10;99.90;;;;;;5046952;28;20591;-80
2022/06/13 10:55:03;;;;;;;14.30;8.35;;;25.10;99.90;;;;;;5033265;28;20195;-82
2022/06/13 10:57:51;;;;;;;14.05;9.27;;;24.80;99.90;;;;;;5043195;28;20666;-81
2022/06/13 11:00:30;;;;;;;17.10;9.25;;;24.70;99.90;;;;;;5042297;28;20267;-80
2022/06/13 11:03:15;;;;;;;16.08;9.30;;;24.90;99.90;;;;;;5053214;28;20306;-81
2022/06/13 11:06:14;;;;;;;18.27;9.45;;;24.90;99.90;;;;;;5053266;28;20184;-81
2022/06/13 11:08:41;;;;;;;15.88;8.75;;;25.10;99.90;;;;;;5039097;28;20187;-82
2022/06/13 11:11:36;;;;;;;12.85;8.52;;;25.20;99.90;;;;;;5031995;28;20191;-82
2022/06/13 11:14:09;;;;;;;15.13;9.10;;;25.20;99.90;;;;;;5021617;28;20191;-80
2022/06/13 11:22:45;;;;;;;11.13;8.38;;;24.90;99.90;;;;;;5045057;28;20199;-80
2022/06/13 11:25:34;;;;;;;9.43;7.43;;;25.00;99.90;;;;;;5031583;28;20183;-81
2022/06/13 11:28:15;;;;;;;14.07;7.95;;;25.10;99.90;;;;;;5043988;28;20656;-81
2022/06/13 11:31:32;;;;;;;10.50;7.85;;;25.20;99.90;;;;;;5023723;28;20185;-81
2022/06/13 11:34:27;;;;;;;12.30;7.95;;;25.30;99.90;;;;;;5040138;28;20260;-82
2022/06/13 11:37:22;;;;;;;15.82;7.72;;;25.40;99.90;;;;;;5025743;28;20190;-81
2022/06/13 11:39:55;;;;;;;11.40;7.40;;;25.50;99.90;;;;;;5047143;28;20179;-81
2022/06/13 11:42:32;;;;;;;13.35;6.90;;;25.60;99.90;;;;;;5045442;28;20195;-82
2022/06/13 11:45:21;;;;;;;15.32;7.85;;;25.60;99.90;;;;;;5057773;28;20203;-82
2022/06/13 11:47:51;;;;;;;10.95;7.90;;;25.50;99.90;;;;;;5033466;28;20549;-82
2022/06/13 11:50:28;;;;;;;21.15;8.98;;;25.40;99.90;;;;;;5037388;28;20687;-81
2022/06/13 11:56:25;;;;;;;14.35;6.70;;;25.60;99.90;;;;;;5041794;28;20175;-80
2022/06/13 11:58:55;;;;;;;13.05;6.95;;;25.50;99.90;;;;;;5028910;28;20198;-81
2022/06/13 12:01:38;;;;;;;10.63;6.65;;;25.20;99.90;;;;;;5039775;28;20187;-81
2022/06/13 12:04:18;;;;;;;12.75;7.65;;;25.20;99.90;;;;;;5063427;28;20203;-80
2022/06/13 12:07:00;;;;;;;10.52;6.32;;;25.20;99.90;;;;;;5036262;28;20179;-81
2022/06/13 12:09:34;;;;;;;15.63;8.40;;;25.10;99.90;;;;;;5032461;28;20182;-81
2022/06/13 12:12:12;;;;;;;11.30;7.03;;;25.10;99.90;;;;;;5060352;28;20187;-82
2022/06/13 12:14:42;;;;;;;13.00;6.93;;;25.00;99.90;;;;;;5025744;28;20187;-80
2022/06/13 12:17:38;;;;;;;12.88;7.63;;;25.00;99.90;;;;;;5059610;28;20194;-80
2022/06/13 12:20:18;;;;;;;11.77;6.72;;;25.00;99.90;;;;;;5043683;28;20188;-81
2022/06/13 12:23:14;;;;;;;15.27;7.55;;;25.00;99.90;;;;;;5045635;28;20302;-80
2022/06/13 12:26:19;;;;;;;12.10;6.90;;;25.10;99.90;;;;;;5032259;28;20184;-82
2022/06/13 12:29:29;;;;;;;12.88;7.30;;;25.10;99.90;;;;;;5046753;28;20645;-81
2022/06/13 12:32:14;;;;;;;12.73;6.70;;;24.90;99.90;;;;;;5038044;28;20202;-80
2022/06/13 12:35:15;;;;;;;12.15;7.68;;;25.00;99.90;;;;;;5033691;28;20302;-80
2022/06/13 12:38:22;;;;;;;9.30;6.22;;;25.00;99.90;;;;;;5021156;28;20551;-81
2022/06/13 12:41:24;;;;;;;13.88;7.35;;;24.80;99.90;;;;;;5036604;28;20184;-80
2022/06/13 12:44:23;;;;;;;10.05;7.30;;;24.80;99.90;;;;;;5027514;28;20686;-80
2022/06/13 12:46:59;;;;;;;13.77;7.90;;;24.90;99.90;;;;;;5043302;28;20223;-79
2022/06/13 12:49:56;;;;;;;13.65;8.05;;;24.90;99.90;;;;;;5057156;28;20183;-79
2022/06/13 12:52:43;;;;;;;12.60;7.53;;;24.90;99.90;;;;;;5031055;28;20282;-80
2022/06/13 12:55:30;;;;;;;15.05;8.38;;;24.90;99.90;;;;;;5041177;28;20180;-81
2022/06/13 12:58:27;;;;;;;15.20;7.00;;;24.90;99.90;;;;;;5033238;28;20198;-80
2022/06/13 13:01:02;;;;;;;12.82;7.25;;;24.70;99.90;;;;;;5023470;28;20219;-81
2022/06/13 13:03:39;;;;;;;15.75;7.15;;;24.70;99.90;;;;;;5028455;28;20226;-81
2022/06/13 13:06:31;;;;;;;10.02;7.40;;;24.80;99.90;;;;;;5025819;28;20214;-81
2022/06/13 13:09:36;;;;;;;13.88;7.22;;;24.90;99.90;;;;;;5035177;28;20266;-82
2022/06/13 13:12:36;;;;;;;14.25;7.20;;;24.80;99.90;;;;;;5044977;28;20262;-81
2022/06/13 13:15:22;;;;;;;12.05;7.13;;;24.80;99.90;;;;;;5031523;28;20230;-82
2022/06/13 13:18:03;;;;;;;11.68;6.95;;;24.80;99.90;;;;;;5028602;28;20184;-81
2022/06/13 13:21:18;;;;;;;12.57;7.13;;;24.70;99.90;;;;;;5041156;28;20199;-81
2022/06/13 13:24:20;;;;;;;15.43;7.68;;;24.70;99.90;;;;;;5046086;28;20210;-81
2022/06/13 13:27:10;;;;;;;13.40;7.50;;;24.60;99.90;;;;;;5026685;28;20194;-82
2022/06/13 13:30:18;;;;;;;14.82;7.65;;;24.70;99.90;;;;;;5050261;28;20195;-80
2022/06/13 13:33:28;;;;;;;14.35;6.15;;;24.70;99.90;;;;;;5030928;28;20215;-80
2022/06/13 13:36:41;;;;;;;12.15;6.07;;;24.70;99.90;;;;;;5037246;28;20198;-81
2022/06/13 13:39:20;;;;;;;10.90;6.22;;;24.50;99.90;;;;;;5043303;28;20193;-81
2022/06/13 13:42:07;;;;;;;11.23;6.05;;;24.50;99.90;;;;;;5043188;28;20199;-80
2022/06/13 13:44:55;;;;;;;14.65;5.90;;;24.30;99.90;;;;;;5029627;28;20200;-81
2022/06/13 13:47:22;;;;;;;11.98;6.13;;;24.40;99.90;;;;;;5038644;28;20219;-83
2022/06/13 13:50:20;;;;;;;9.70;5.50;;;24.50;99.90;;;;;;5045273;28;20175;-81
2022/06/13 13:52:56;;;;;;;7.47;5.47;;;24.60;99.90;;;;;;5059589;28;20199;-81
2022/06/13 13:55:41;;;;;;;7.97;4.97;;;24.60;99.90;;;;;;5034599;28;20235;-81
2022/06/13 13:58:27;;;;;;;9.15;4.95;;;24.70;99.90;;;;;;5024250;28;20213;-80
2022/06/13 14:01:32;;;;;;;10.07;5.28;;;24.70;99.90;;;;;;5031918;28;20290;-81
2022/06/13 14:04:33;;;;;;;7.40;5.07;;;24.80;99.90;;;;;;5035232;28;20216;-81
2022/06/13 14:07:37;;;;;;;9.13;5.40;;;24.80;99.90;;;;;;5019609;28;20198;-81
2022/06/13 14:10:06;;;;;;;11.88;6.03;;;24.80;99.90;;;;;;5042659;28;20200;-81
2022/06/13 14:12:42;;;;;;;9.70;5.72;;;24.90;99.90;;;;;;5029922;28;20175;-80
2022/06/13 14:15:17;;;;;;;11.43;5.30;;;24.90;99.90;;;;;;5023426;28;20175;-81
2022/06/13 14:17:52;;;;;;;15.65;5.10;;;24.90;99.90;;;;;;5037672;28;20218;-81
2022/06/13 14:20:29;;;;;;;11.95;5.90;;;24.80;99.90;;;;;;5042240;28;21718;-81